createdAt,value
2023-01-25T00:01:47.847Z,99.20
2023-01-25T00:04:15.768Z,99.30
2023-01-25T00:06:43.676Z,99.00
2023-01-25T00:09:12.239Z,99.10
2023-01-25T00:11:40.152Z,99.00
2023-01-25T00:14:08.407Z,99.30
2023-01-25T00:16:38.258Z,99.00
2023-01-25T00:19:06.805Z,98.90
2023-01-25T00:21:35.154Z,98.90
2023-01-25T00:24:03.173Z,99.10
2023-01-25T00:26:31.209Z,99.00
2023-01-25T00:28:59.167Z,98.80
2023-01-25T00:31:33.169Z,98.80
2023-01-25T00:34:08.827Z,99.10
2023-01-25T00:36:42.638Z,99.00
2023-01-25T00:39:13.543Z,99.30
2023-01-25T00:41:41.911Z,98.80
2023-01-25T00:44:09.822Z,99.20
2023-01-25T00:46:37.996Z,99.00
2023-01-25T00:49:07.509Z,98.80
2023-01-25T00:51:35.449Z,98.80
2023-01-25T00:54:03.350Z,99.00
2023-01-25T00:56:31.255Z,98.90
2023-01-25T00:58:59.182Z,98.80
2023-01-25T01:01:27.195Z,99.20
2023-01-25T01:03:55.169Z,99.10
2023-01-25T01:06:24.507Z,99.20
2023-01-25T01:08:52.608Z,99.00
2023-01-25T01:11:21.004Z,99.30
2023-01-25T01:13:48.912Z,99.00
2023-01-25T01:16:16.888Z,98.70
2023-01-25T01:18:46.898Z,99.10
2023-01-25T01:21:15.436Z,99.20
2023-01-25T01:23:44.817Z,99.20
2023-01-25T01:26:19.390Z,99.30
2023-01-25T01:28:47.625Z,99.30
2023-01-25T01:31:17.597Z,99.30
2023-01-25T01:33:45.685Z,99.30
2023-01-25T01:36:16.168Z,99.40
2023-01-25T01:38:46.056Z,99.30
2023-01-25T01:41:15.171Z,99.10
2023-01-25T01:43:43.843Z,99.20
2023-01-25T01:46:16.748Z,99.20
2023-01-25T01:48:48.838Z,99.40
2023-01-25T01:51:22.517Z,99.30
2023-01-25T01:53:56.874Z,99.50
2023-01-25T01:56:29.973Z,99.30
2023-01-25T01:59:00.094Z,99.10
2023-01-25T02:01:33.278Z,99.30
2023-01-25T02:04:02.487Z,99.10
2023-01-25T02:06:35.564Z,99.00
2023-01-25T02:09:04.931Z,99.20
2023-01-25T02:11:34.200Z,99.30
2023-01-25T02:14:03.658Z,99.10
2023-01-25T02:16:31.664Z,99.50
2023-01-25T02:19:02.621Z,99.40
2023-01-25T02:21:45.675Z,99.40
2023-01-25T02:24:20.684Z,99.40
2023-01-25T02:26:50.145Z,99.50
2023-01-25T02:29:19.624Z,99.50
2023-01-25T02:31:49.563Z,99.70
2023-01-25T02:34:17.586Z,99.90
2023-01-25T02:36:45.581Z,99.70
2023-01-25T02:39:20.136Z,99.70
2023-01-25T02:41:49.865Z,99.70
2023-01-25T02:44:19.868Z,99.50
2023-01-25T02:46:48.633Z,99.50
2023-01-25T02:49:17.346Z,99.40
2023-01-25T02:51:50.152Z,99.60
2023-01-25T02:54:20.076Z,99.60
2023-01-25T02:56:49.420Z,99.50
2023-01-25T02:59:18.955Z,99.90
2023-01-25T03:01:46.987Z,99.50
2023-01-25T03:04:15.079Z,99.60
2023-01-25T03:06:43.517Z,99.30
2023-01-25T03:09:12.829Z,99.30
2023-01-25T03:11:40.929Z,99.50
2023-01-25T03:14:10.284Z,99.70
2023-01-25T03:16:38.251Z,99.60
2023-01-25T03:19:06.193Z,99.50
2023-01-25T03:21:34.118Z,99.60
2023-01-25T03:24:03.293Z,99.50
2023-01-25T03:26:52.324Z,99.40
2023-01-25T03:29:21.851Z,99.30
2023-01-25T03:31:49.825Z,99.30
2023-01-25T03:34:17.906Z,99.40
2023-01-25T03:36:46.017Z,99.40
2023-01-25T03:39:14.157Z,99.30
2023-01-25T03:41:42.260Z,99.20
2023-01-25T03:44:11.412Z,99.20
2023-01-25T03:46:41.278Z,99.10
2023-01-25T03:49:09.649Z,99.10
2023-01-25T03:51:38.066Z,99.40
2023-01-25T03:54:08.218Z,99.40
2023-01-25T03:56:36.300Z,99.30
2023-01-25T03:59:04.253Z,99.40
2023-01-25T04:01:32.192Z,99.30
2023-01-25T04:04:01.471Z,99.50
2023-01-25T04:06:29.609Z,99.90
2023-01-25T04:08:57.625Z,99.80
2023-01-25T04:11:25.571Z,99.70
2023-01-25T04:13:53.509Z,99.80
2023-01-25T04:16:21.564Z,99.40
2023-01-25T04:18:49.529Z,99.60
2023-01-25T04:21:18.859Z,99.30
2023-01-25T04:23:46.853Z,99.20
2023-01-25T04:26:15.620Z,99.60
2023-01-25T04:28:43.560Z,99.40
2023-01-25T04:31:11.533Z,99.30
2023-01-25T04:33:39.695Z,99.70
2023-01-25T04:36:08.329Z,99.30
2023-01-25T04:38:37.583Z,99.90
2023-01-25T04:41:06.003Z,99.30
2023-01-25T04:43:33.952Z,99.90
2023-01-25T04:46:02.711Z,99.50
2023-01-25T04:48:30.946Z,99.60
2023-01-25T04:50:58.858Z,99.70
2023-01-25T04:53:26.951Z,99.70
2023-01-25T04:55:56.228Z,99.30
2023-01-25T04:58:24.128Z,99.60
2023-01-25T05:00:52.069Z,99.10
2023-01-25T05:03:20.126Z,99.40
2023-01-25T05:05:48.583Z,99.90
2023-01-25T05:08:16.513Z,99.90
2023-01-25T05:10:44.480Z,99.90
2023-01-25T05:13:13.804Z,99.80
2023-01-25T05:15:41.807Z,99.60
2023-01-25T05:18:09.967Z,99.90
2023-01-25T05:20:37.963Z,99.70
2023-01-25T05:23:05.865Z,99.80
2023-01-25T05:25:51.059Z,99.60
2023-01-25T05:28:20.311Z,99.70
2023-01-25T05:30:48.246Z,99.30
2023-01-25T05:33:16.277Z,99.50
2023-01-25T05:35:44.522Z,99.70
2023-01-25T05:38:12.683Z,99.30
2023-01-25T05:40:40.623Z,99.40
2023-01-25T05:43:09.591Z,99.30
2023-01-25T05:45:40.220Z,99.70
2023-01-25T05:48:08.230Z,99.60
2023-01-25T05:50:36.146Z,99.80
2023-01-25T05:53:04.117Z,99.30
2023-01-25T05:55:32.064Z,99.50
2023-01-25T05:58:00.077Z,99.90
2023-01-25T06:00:28.239Z,99.70
2023-01-25T06:03:01.039Z,99.40
2023-01-25T06:05:29.010Z,99.60
2023-01-25T06:07:56.932Z,99.30
2023-01-25T06:10:24.921Z,99.50
2023-01-25T06:12:58.205Z,99.90
2023-01-25T06:15:26.533Z,99.60
2023-01-25T06:17:57.314Z,99.20
2023-01-25T06:20:25.274Z,99.20
2023-01-25T06:22:53.780Z,99.60
2023-01-25T06:25:21.714Z,99.50
2023-01-25T06:27:49.591Z,99.80
2023-01-25T06:30:17.891Z,99.60
2023-01-25T06:32:45.782Z,99.70
2023-01-25T06:35:15.273Z,99.30
2023-01-25T06:37:44.021Z,99.90
2023-01-25T06:40:13.265Z,99.40
2023-01-25T06:42:41.180Z,99.50
2023-01-25T06:45:10.837Z,99.40
2023-01-25T06:47:39.033Z,99.70
2023-01-25T06:50:07.952Z,99.80
2023-01-25T06:52:37.840Z,99.90
2023-01-25T06:55:07.716Z,99.60
2023-01-25T06:57:35.859Z,99.70
2023-01-25T07:00:04.240Z,99.30
2023-01-25T07:02:32.239Z,99.60
2023-01-25T07:05:00.205Z,99.60
2023-01-25T07:07:28.185Z,99.60
2023-01-25T07:09:58.878Z,99.50
2023-01-25T07:12:27.059Z,99.20
2023-01-25T07:14:54.933Z,99.40
2023-01-25T07:17:22.887Z,99.40
2023-01-25T07:19:50.816Z,99.10
2023-01-25T07:22:18.905Z,99.30
2023-01-25T07:24:49.978Z,99.50
2023-01-25T07:27:19.271Z,99.60
2023-01-25T07:29:47.268Z,99.30
2023-01-25T07:32:15.187Z,99.40
2023-01-25T07:34:43.117Z,99.10
2023-01-25T07:37:11.289Z,99.20
2023-01-25T07:39:40.755Z,99.10
2023-01-25T07:42:08.898Z,99.20
2023-01-25T07:44:38.129Z,99.50
2023-01-25T07:47:06.083Z,99.70
2023-01-25T07:49:33.999Z,99.20
2023-01-25T07:52:01.908Z,99.70
2023-01-25T07:54:29.998Z,99.60
2023-01-25T07:56:58.167Z,99.50
2023-01-25T07:59:26.643Z,99.60
2023-01-25T08:01:55.887Z,99.70
2023-01-25T08:04:23.855Z,99.40
2023-01-25T08:06:51.841Z,99.00
2023-01-25T08:09:20.517Z,99.40
2023-01-25T08:11:49.275Z,99.20
2023-01-25T08:14:17.788Z,99.10
2023-01-25T08:16:45.804Z,99.30
2023-01-25T08:19:15.885Z,99.10
2023-01-25T08:21:43.759Z,99.30
2023-01-25T08:24:11.933Z,98.90
2023-01-25T08:26:40.216Z,99.30
2023-01-25T08:29:08.243Z,99.30
2023-01-25T08:31:37.411Z,99.20
2023-01-25T08:34:06.709Z,98.90
2023-01-25T08:36:36.368Z,99.40
2023-01-25T08:39:07.524Z,99.30
2023-01-25T08:41:36.541Z,98.80
2023-01-25T08:44:05.018Z,99.10
2023-01-25T08:46:35.116Z,99.00
2023-01-25T08:49:04.855Z,99.10
2023-01-25T08:51:33.637Z,99.00
2023-01-25T08:54:07.546Z,98.90
2023-01-25T08:56:37.992Z,99.00
2023-01-25T08:59:06.023Z,98.90
2023-01-25T09:01:34.093Z,98.90
2023-01-25T09:04:02.158Z,98.70
2023-01-25T09:06:30.275Z,98.70
2023-01-25T09:09:00.013Z,98.60
2023-01-25T09:11:29.370Z,98.40
2023-01-25T09:13:57.437Z,98.90
2023-01-25T09:16:30.126Z,98.90
2023-01-25T09:18:59.059Z,98.90
2023-01-25T09:21:27.426Z,98.90
2023-01-25T09:24:11.251Z,98.60
2023-01-25T09:26:44.495Z,98.80
2023-01-25T09:29:17.999Z,98.80
2023-01-25T09:31:46.105Z,99.00
2023-01-25T09:34:15.564Z,98.50
2023-01-25T09:36:46.205Z,98.60
2023-01-25T09:39:14.260Z,99.00
2023-01-25T09:42:16.180Z,98.80
2023-01-25T09:45:20.743Z,98.70
2023-01-25T09:47:54.359Z,98.80
2023-01-25T09:50:37.258Z,99.20
2023-01-25T09:53:40.059Z,98.80
2023-01-25T09:56:15.436Z,98.60
2023-01-25T09:58:48.676Z,98.40
2023-01-25T10:01:37.464Z,98.80
2023-01-25T10:04:13.276Z,98.40
2023-01-25T10:06:48.737Z,98.50
2023-01-25T10:09:32.990Z,97.90
2023-01-25T10:12:06.874Z,98.90
2023-01-25T10:14:36.151Z,98.90
2023-01-25T10:17:10.478Z,98.90
2023-01-25T10:19:56.768Z,98.60
2023-01-25T10:22:29.724Z,98.50
2023-01-25T10:25:33.548Z,98.20
2023-01-25T10:28:17.925Z,98.70
2023-01-25T10:30:54.196Z,98.50
2023-01-25T10:33:23.118Z,98.50
2023-01-25T10:35:51.655Z,98.50
2023-01-25T10:38:24.448Z,98.40
2023-01-25T10:40:56.441Z,98.00
2023-01-25T10:43:24.785Z,97.80
2023-01-25T10:45:54.107Z,98.20
2023-01-25T10:48:24.082Z,98.30
2023-01-25T10:50:57.402Z,98.20
2023-01-25T10:53:34.038Z,98.80
2023-01-25T10:56:22.889Z,98.50
2023-01-25T10:58:54.289Z,98.60
2023-01-25T11:01:31.578Z,98.30
2023-01-25T11:04:01.330Z,98.60
2023-01-25T11:06:35.496Z,98.50
2023-01-25T11:09:24.080Z,98.60
2023-01-25T11:11:56.518Z,99.00
2023-01-25T11:14:27.573Z,99.30
2023-01-25T11:16:58.475Z,99.10
2023-01-25T11:19:30.074Z,98.80
2023-01-25T11:21:59.854Z,98.60
2023-01-25T11:24:29.400Z,98.60
2023-01-25T11:27:23.509Z,98.20
2023-01-25T11:30:12.566Z,98.40
2023-01-25T11:32:42.521Z,98.60
2023-01-25T11:35:15.143Z,97.80
2023-01-25T11:38:02.003Z,98.10
2023-01-25T11:40:35.079Z,97.90
2023-01-25T11:43:18.089Z,98.00
2023-01-25T11:46:13.825Z,97.50
2023-01-25T11:49:13.311Z,97.70
2023-01-25T11:51:51.212Z,98.50
2023-01-25T11:54:34.605Z,98.10
2023-01-25T11:57:11.153Z,98.20
2023-01-25T11:59:54.837Z,98.20
2023-01-25T12:02:58.398Z,97.90
2023-01-25T12:05:50.247Z,98.20
2023-01-25T12:08:35.263Z,97.60
2023-01-25T12:11:10.469Z,98.00
2023-01-25T12:13:48.433Z,98.20
2023-01-25T12:16:35.447Z,98.10
2023-01-25T12:19:19.138Z,97.90
2023-01-25T12:22:04.494Z,98.40
2023-01-25T12:24:44.629Z,97.90
2023-01-25T12:27:25.818Z,98.30
2023-01-25T12:29:57.548Z,98.70
2023-01-25T12:32:35.816Z,98.70
2023-01-25T12:35:19.024Z,98.20
2023-01-25T12:37:50.302Z,97.80
2023-01-25T12:40:21.579Z,98.20
2023-01-25T12:42:55.104Z,98.10
2023-01-25T12:45:26.420Z,98.20
2023-01-25T12:47:58.628Z,97.80
2023-01-25T12:50:33.187Z,97.70
2023-01-25T12:53:07.536Z,98.20
2023-01-25T12:55:35.499Z,98.20
2023-01-25T12:58:08.290Z,98.10
2023-01-25T13:00:43.514Z,97.80
2023-01-25T13:03:29.138Z,98.10
2023-01-25T13:06:04.909Z,98.10
2023-01-25T13:08:43.805Z,98.00
2023-01-25T13:11:20.391Z,98.00
2023-01-25T13:13:49.831Z,98.40
2023-01-25T13:16:39.479Z,98.00
2023-01-25T13:19:20.406Z,98.10
2023-01-25T13:21:49.842Z,97.70
2023-01-25T13:24:21.724Z,98.10
2023-01-25T13:26:58.442Z,97.80
2023-01-25T13:29:46.883Z,97.70
2023-01-25T13:32:35.913Z,97.50
2023-01-25T13:35:06.115Z,97.80
2023-01-25T13:37:35.739Z,97.40
2023-01-25T13:40:06.397Z,98.20
2023-01-25T13:42:36.276Z,97.90
2023-01-25T13:45:14.383Z,97.90
2023-01-25T13:47:44.145Z,98.20
2023-01-25T13:50:21.729Z,97.40
2023-01-25T13:53:00.151Z,98.00
2023-01-25T13:55:28.959Z,97.60
2023-01-25T13:58:11.364Z,97.90
2023-01-25T14:00:47.960Z,97.80
2023-01-25T14:03:16.112Z,97.90
2023-01-25T14:05:52.283Z,97.60
2023-01-25T14:08:21.552Z,97.50
2023-01-25T14:10:51.006Z,97.90
2023-01-25T14:13:19.835Z,97.50
2023-01-25T14:15:56.729Z,97.70
2023-01-25T14:18:35.112Z,97.50
2023-01-25T14:21:18.025Z,97.60
2023-01-25T14:23:46.930Z,98.00
2023-01-25T14:26:20.623Z,97.80
2023-01-25T14:28:59.393Z,97.80
2023-01-25T14:31:35.465Z,97.90
2023-01-25T14:34:04.971Z,97.90
2023-01-25T14:36:35.570Z,98.50
2023-01-25T14:39:05.025Z,97.90
2023-01-25T14:41:35.449Z,97.60
2023-01-25T14:44:05.071Z,97.60
2023-01-25T14:46:35.095Z,97.60
2023-01-25T14:49:17.836Z,97.90
2023-01-25T14:51:49.661Z,97.90
2023-01-25T14:54:20.565Z,97.50
2023-01-25T14:56:50.564Z,97.90
2023-01-25T14:59:27.024Z,97.80
2023-01-25T15:01:57.438Z,98.10
2023-01-25T15:04:25.475Z,98.00
2023-01-25T15:06:59.184Z,97.80
2023-01-25T15:09:42.188Z,97.90
2023-01-25T15:12:28.391Z,97.70
2023-01-25T15:14:59.007Z,97.90
2023-01-25T15:17:42.936Z,97.90
2023-01-25T15:20:35.515Z,98.20
2023-01-25T15:23:24.158Z,98.10
2023-01-25T15:25:54.192Z,97.90
2023-01-25T15:28:23.244Z,97.70
2023-01-25T15:30:51.733Z,98.10
2023-01-25T15:33:22.628Z,98.00
2023-01-25T15:35:53.924Z,98.20
2023-01-25T15:38:24.951Z,98.40
2023-01-25T15:40:53.214Z,98.20
2023-01-25T15:43:21.453Z,98.10
2023-01-25T15:45:51.736Z,98.00
2023-01-25T15:48:24.097Z,98.20
2023-01-25T15:50:54.156Z,98.10
2023-01-25T15:53:23.428Z,98.00
2023-01-25T15:55:54.727Z,98.10
2023-01-25T15:58:25.357Z,98.00
2023-01-25T16:00:53.424Z,98.40
2023-01-25T16:03:21.746Z,98.60
2023-01-25T16:05:51.883Z,98.30
2023-01-25T16:08:20.972Z,98.20
2023-01-25T16:10:50.260Z,98.30
2023-01-25T16:13:18.401Z,98.30
2023-01-25T16:15:50.469Z,98.10
2023-01-25T16:18:18.495Z,98.00
2023-01-25T16:20:46.452Z,98.50
2023-01-25T16:23:15.105Z,98.30
2023-01-25T16:25:44.295Z,98.20
2023-01-25T16:28:15.602Z,98.30
2023-01-25T16:30:45.029Z,98.10
2023-01-25T16:33:13.114Z,98.00
2023-01-25T16:35:41.072Z,98.20
2023-01-25T16:38:12.583Z,98.30
2023-01-25T16:40:40.557Z,98.20
2023-01-25T16:43:08.623Z,98.40
2023-01-25T16:45:39.668Z,98.20
2023-01-25T16:48:08.089Z,98.10
2023-01-25T16:50:36.139Z,98.40
2023-01-25T16:53:04.048Z,98.20
2023-01-25T16:55:32.496Z,98.50
2023-01-25T16:58:00.367Z,98.50
2023-01-25T17:00:28.305Z,98.40
2023-01-25T17:02:59.825Z,98.40
2023-01-25T17:05:31.937Z,98.40
2023-01-25T17:07:59.985Z,98.20
2023-01-25T17:10:28.796Z,98.30
2023-01-25T17:12:56.710Z,98.30
2023-01-25T17:15:24.657Z,98.70
2023-01-25T17:17:52.572Z,98.30
2023-01-25T17:20:21.892Z,98.30
2023-01-25T17:22:51.239Z,98.30
2023-01-25T17:25:19.350Z,98.30
2023-01-25T17:27:47.368Z,98.70
2023-01-25T17:30:16.110Z,98.40
2023-01-25T17:32:44.016Z,98.50
2023-01-25T17:35:11.922Z,98.50
2023-01-25T17:37:41.255Z,98.40
2023-01-25T17:40:11.320Z,98.40
2023-01-25T17:42:39.625Z,98.40
2023-01-25T17:45:09.194Z,98.40
2023-01-25T17:47:37.292Z,98.50
2023-01-25T17:50:05.648Z,98.40
2023-01-25T17:52:33.530Z,98.50
2023-01-25T17:55:03.760Z,98.40
2023-01-25T17:57:31.731Z,98.50
2023-01-25T17:59:59.710Z,98.50
2023-01-25T18:02:27.720Z,98.40
2023-01-25T18:04:57.781Z,98.80
2023-01-25T18:07:25.995Z,98.80
2023-01-25T18:09:54.022Z,98.60
2023-01-25T18:12:23.337Z,98.50
2023-01-25T18:14:51.511Z,98.60
2023-01-25T18:17:19.429Z,98.60
2023-01-25T18:19:48.917Z,98.40
2023-01-25T18:22:17.325Z,98.90
2023-01-25T18:24:46.463Z,98.40
2023-01-25T18:27:20.479Z,98.50
2023-01-25T18:30:00.282Z,98.30
2023-01-25T18:32:28.709Z,98.70
2023-01-25T18:34:57.168Z,98.50
2023-01-25T18:37:29.263Z,98.90
2023-01-25T18:39:57.511Z,99.00
2023-01-25T18:42:27.262Z,98.70
2023-01-25T18:44:56.701Z,99.10
2023-01-25T18:47:25.153Z,99.10
2023-01-25T18:49:54.588Z,99.00
2023-01-25T18:52:24.092Z,99.10
2023-01-25T18:54:52.413Z,98.90
2023-01-25T18:57:20.876Z,98.70
2023-01-25T18:59:49.019Z,98.70
2023-01-25T19:02:20.234Z,98.50
2023-01-25T19:04:48.317Z,98.60
2023-01-25T19:07:16.267Z,98.60
2023-01-25T19:09:44.487Z,98.50
2023-01-25T19:12:12.487Z,98.60
2023-01-25T19:14:40.519Z,98.50
2023-01-25T19:17:08.822Z,98.60
2023-01-25T19:19:38.126Z,98.50
2023-01-25T19:22:06.098Z,98.50
2023-01-25T19:24:34.068Z,98.50
2023-01-25T19:27:02.071Z,98.80
2023-01-25T19:29:30.050Z,98.80
2023-01-25T19:31:57.950Z,98.80
2023-01-25T19:34:26.048Z,99.10
2023-01-25T19:36:55.789Z,99.20
2023-01-25T19:39:23.747Z,99.50
2023-01-25T19:41:53.395Z,99.20
2023-01-25T19:44:21.764Z,99.60
2023-01-25T19:46:49.936Z,99.70
2023-01-25T19:49:18.284Z,99.50
2023-01-25T19:51:52.734Z,99.40
2023-01-25T19:54:24.105Z,99.40
2023-01-25T19:56:52.249Z,99.50
2023-01-25T19:59:23.302Z,99.50
2023-01-25T20:01:51.703Z,99.50
2023-01-25T20:04:21.448Z,99.40
2023-01-25T20:06:50.224Z,99.40
2023-01-25T20:09:20.060Z,99.20
2023-01-25T20:11:49.470Z,99.40
2023-01-25T20:14:17.474Z,99.40
2023-01-25T20:16:46.932Z,99.20
2023-01-25T20:19:14.852Z,99.20
2023-01-25T20:21:42.818Z,99.20
2023-01-25T20:24:10.899Z,99.40
2023-01-25T20:26:42.678Z,99.50
2023-01-25T20:29:13.333Z,99.40
2023-01-25T20:31:43.452Z,99.40
2023-01-25T20:34:13.948Z,99.30
2023-01-25T20:36:43.142Z,99.30
2023-01-25T20:39:14.057Z,99.30
2023-01-25T20:41:42.152Z,99.40
2023-01-25T20:44:12.455Z,99.30
2023-01-25T20:46:42.244Z,99.10
2023-01-25T20:49:15.911Z,99.20
2023-01-25T20:51:43.998Z,99.00
2023-01-25T20:54:12.386Z,98.80
2023-01-25T20:56:40.411Z,99.50
2023-01-25T20:59:08.321Z,99.00
2023-01-25T21:01:38.029Z,99.20
2023-01-25T21:04:07.844Z,99.80
2023-01-25T21:06:36.008Z,99.70
2023-01-25T21:09:04.010Z,99.20
2023-01-25T21:11:32.167Z,99.30
2023-01-25T21:14:00.161Z,99.20
2023-01-25T21:16:28.438Z,99.10
2023-01-25T21:19:00.080Z,99.00
2023-01-25T21:21:30.037Z,99.10
2023-01-25T21:24:00.130Z,98.80
2023-01-25T21:26:30.399Z,99.10
2023-01-25T21:29:00.258Z,99.00
2023-01-25T21:31:30.833Z,99.10
2023-01-25T21:34:00.756Z,99.10
2023-01-25T21:36:29.138Z,99.30
2023-01-25T21:38:58.067Z,99.30
2023-01-25T21:41:29.053Z,99.30
2023-01-25T21:44:17.453Z,99.30
2023-01-25T21:47:06.115Z,99.40
2023-01-25T21:49:52.515Z,99.40
2023-01-25T21:52:20.470Z,99.40
2023-01-25T21:54:48.417Z,99.40
2023-01-25T21:57:16.346Z,99.30
2023-01-25T21:59:44.247Z,99.30
2023-01-25T22:02:15.002Z,99.40
2023-01-25T22:04:44.479Z,99.20
2023-01-25T22:07:13.063Z,99.90
2023-01-25T22:09:41.152Z,99.90
2023-01-25T22:12:09.269Z,99.90
2023-01-25T22:14:37.236Z,99.90
2023-01-25T22:17:05.185Z,99.80
2023-01-25T22:19:33.339Z,99.90
2023-01-25T22:22:02.703Z,99.70
2023-01-25T22:24:30.980Z,99.70
2023-01-25T22:27:05.399Z,99.60
2023-01-25T22:29:33.843Z,99.40
2023-01-25T22:32:02.176Z,99.70
2023-01-25T22:34:30.232Z,99.90
2023-01-25T22:36:58.156Z,99.90
2023-01-25T22:39:27.455Z,99.90
2023-01-25T22:41:55.771Z,99.90
2023-01-25T22:44:23.689Z,99.80
2023-01-25T22:46:52.775Z,99.60
2023-01-25T22:49:20.838Z,99.60
2023-01-25T22:51:48.864Z,99.60
2023-01-25T22:54:16.748Z,99.50
2023-01-25T22:56:46.046Z,99.50
2023-01-25T22:59:18.614Z,99.50
2023-01-25T23:01:46.714Z,99.70
2023-01-25T23:04:14.693Z,99.60
2023-01-25T23:06:42.822Z,99.50
2023-01-25T23:09:11.500Z,99.70
2023-01-25T23:11:39.801Z,99.90
2023-01-25T23:14:29.183Z,99.80
2023-01-25T23:17:17.733Z,99.50
2023-01-25T23:19:44.814Z,99.80
2023-01-25T23:22:13.366Z,99.90
2023-01-25T23:24:41.424Z,99.80
2023-01-25T23:27:09.349Z,99.90
2023-01-25T23:29:38.665Z,99.90
2023-01-25T23:32:07.008Z,99.90
2023-01-25T23:34:39.456Z,99.90
2023-01-25T23:37:07.471Z,99.90
2023-01-25T23:39:35.384Z,99.90
2023-01-25T23:42:03.353Z,99.90
2023-01-25T23:44:31.295Z,99.90
2023-01-25T23:47:01.549Z,99.90
2023-01-25T23:49:29.539Z,99.90
2023-01-25T23:51:57.455Z,99.90
2023-01-25T23:54:26.900Z,99.90
2023-01-25T23:56:54.999Z,99.80
2023-01-25T23:59:23.188Z,99.90
